createdAt,value
2022-10-06T00:01:15.651Z,6.95
2022-10-06T00:03:45.928Z,9.85
2022-10-06T00:06:15.988Z,5.63
2022-10-06T00:08:44.589Z,9.35
2022-10-06T00:11:13.618Z,4.53
2022-10-06T00:13:41.829Z,7.85
2022-10-06T00:16:14.355Z,5.45
2022-10-06T00:18:42.099Z,7.00
2022-10-06T00:21:11.749Z,8.77
2022-10-06T00:23:39.508Z,15.73
2022-10-06T00:26:12.466Z,13.57
2022-10-06T00:28:40.245Z,15.80
2022-10-06T00:31:08.090Z,11.68
2022-10-06T00:33:37.228Z,10.05
2022-10-06T00:36:05.830Z,7.45
2022-10-06T00:38:35.249Z,8.52
2022-10-06T00:41:02.972Z,9.63
2022-10-06T00:43:49.406Z,11.77
2022-10-06T00:46:22.915Z,7.25
2022-10-06T00:48:54.714Z,10.18
2022-10-06T00:51:23.778Z,9.05
2022-10-06T00:53:53.108Z,5.07
2022-10-06T00:56:20.944Z,13.70
2022-10-06T00:58:50.239Z,12.20
2022-10-06T01:01:18.481Z,15.13
2022-10-06T01:03:50.668Z,12.18
2022-10-06T01:08:47.068Z,8.35
2022-10-06T01:11:16.311Z,7.63
2022-10-06T01:13:46.383Z,9.55
2022-10-06T01:16:20.105Z,10.15
2022-10-06T01:18:49.535Z,8.55
2022-10-06T01:21:27.839Z,9.05
2022-10-06T01:23:57.322Z,7.25
2022-10-06T01:26:26.214Z,11.77
2022-10-06T01:28:54.093Z,17.27
2022-10-06T01:31:22.298Z,11.27
2022-10-06T01:33:52.932Z,13.90
2022-10-06T01:36:21.017Z,10.57
2022-10-06T01:38:48.807Z,12.77
2022-10-06T01:41:19.958Z,13.35
2022-10-06T01:43:47.693Z,11.70
2022-10-06T01:46:15.505Z,9.43
2022-10-06T01:48:43.370Z,10.68
2022-10-06T01:51:14.659Z,13.35
2022-10-06T01:53:42.348Z,16.60
2022-10-06T01:56:22.649Z,15.20
2022-10-06T01:58:51.710Z,11.48
2022-10-06T02:01:19.530Z,12.73
2022-10-06T02:03:47.246Z,16.05
2022-10-06T02:06:14.988Z,15.82
2022-10-06T02:08:42.727Z,15.15
2022-10-06T02:11:12.187Z,16.17
2022-10-06T02:13:40.667Z,11.85
2022-10-06T02:16:12.410Z,11.98
2022-10-06T02:18:40.556Z,11.38
2022-10-06T02:21:14.357Z,9.80
2022-10-06T02:23:42.104Z,12.05
2022-10-06T02:26:09.842Z,19.35
2022-10-06T02:28:37.615Z,14.30
2022-10-06T02:31:07.399Z,11.98
2022-10-06T02:33:37.727Z,16.02
2022-10-06T02:36:06.624Z,17.15
2022-10-06T02:38:34.731Z,17.13
2022-10-06T02:41:03.324Z,13.25
2022-10-06T02:43:31.396Z,13.25
2022-10-06T02:46:01.273Z,16.27
2022-10-06T02:48:30.699Z,11.48
2022-10-06T02:51:01.249Z,13.32
2022-10-06T02:53:30.423Z,11.23
2022-10-06T02:56:01.831Z,17.95
2022-10-06T02:58:31.328Z,12.88
2022-10-06T03:01:02.732Z,12.18
2022-10-06T03:03:31.295Z,19.80
2022-10-06T03:06:05.261Z,12.38
2022-10-06T03:08:33.576Z,22.45
2022-10-06T03:11:02.534Z,13.73
2022-10-06T03:13:31.278Z,14.65
2022-10-06T03:15:59.327Z,21.80
2022-10-06T03:18:27.244Z,11.90
2022-10-06T03:20:55.389Z,12.75
2022-10-06T03:23:24.436Z,17.10
2022-10-06T03:25:58.483Z,13.20
2022-10-06T03:28:26.491Z,17.98
2022-10-06T03:30:55.091Z,19.23
2022-10-06T03:33:22.798Z,29.45
2022-10-06T03:35:59.752Z,18.08
2022-10-06T03:38:29.263Z,13.65
2022-10-06T03:41:03.698Z,16.27
2022-10-06T03:43:31.413Z,13.02
2022-10-06T03:46:00.863Z,14.00
2022-10-06T03:48:29.179Z,21.98
2022-10-06T03:50:58.506Z,11.32
2022-10-06T03:53:29.730Z,14.10
2022-10-06T03:56:01.471Z,13.43
2022-10-06T03:58:29.544Z,17.15
2022-10-06T04:01:01.887Z,13.95
2022-10-06T04:05:58.770Z,21.55
2022-10-06T04:08:28.353Z,20.33
2022-10-06T04:10:56.543Z,17.42
2022-10-06T04:13:24.248Z,20.50
2022-10-06T04:15:51.895Z,15.57
2022-10-06T04:18:19.631Z,14.02
2022-10-06T04:20:47.340Z,15.02
2022-10-06T04:23:16.167Z,21.65
2022-10-06T04:25:45.213Z,16.90
2022-10-06T04:28:12.964Z,24.30
2022-10-06T04:30:40.694Z,17.23
2022-10-06T04:33:08.428Z,15.93
2022-10-06T04:35:36.036Z,14.48
2022-10-06T04:38:03.701Z,23.85
2022-10-06T04:40:31.401Z,16.52
2022-10-06T04:43:00.470Z,30.63
2022-10-06T04:45:28.347Z,16.98
2022-10-06T04:47:56.028Z,21.60
2022-10-06T04:50:23.991Z,17.13
2022-10-06T04:52:52.292Z,23.35
2022-10-06T04:55:20.009Z,17.48
2022-10-06T04:57:47.715Z,14.32
2022-10-06T05:00:26.735Z,15.15
2022-10-06T05:02:55.852Z,16.15
2022-10-06T05:05:23.600Z,22.08
2022-10-06T05:07:51.412Z,19.17
2022-10-06T05:10:19.140Z,16.65
2022-10-06T05:12:46.782Z,15.40
2022-10-06T05:15:16.648Z,9.80
2022-10-06T05:17:44.378Z,14.88
2022-10-06T05:20:12.093Z,11.95
2022-10-06T05:22:39.760Z,17.40
2022-10-06T05:25:07.932Z,11.23
2022-10-06T05:27:35.619Z,11.60
2022-10-06T05:30:03.301Z,17.05
2022-10-06T05:32:35.899Z,26.00
2022-10-06T05:35:04.527Z,15.50
2022-10-06T05:37:32.238Z,18.35
2022-10-06T05:40:00.053Z,17.92
2022-10-06T05:42:29.809Z,21.02
2022-10-06T05:44:57.679Z,32.17
2022-10-06T05:47:25.388Z,26.30
2022-10-06T05:49:54.492Z,19.10
2022-10-06T05:52:22.285Z,19.55
2022-10-06T05:54:50.661Z,18.00
2022-10-06T05:57:18.367Z,18.50
2022-10-06T05:59:46.046Z,22.30
2022-10-06T06:02:13.829Z,23.70
2022-10-06T06:04:41.589Z,16.08
2022-10-06T06:07:10.718Z,14.38
2022-10-06T06:09:38.409Z,12.23
2022-10-06T06:12:06.242Z,14.23
2022-10-06T06:14:50.651Z,15.55
2022-10-06T06:17:18.378Z,13.77
2022-10-06T06:19:46.051Z,12.52
2022-10-06T06:22:15.099Z,22.35
2022-10-06T06:24:42.754Z,15.85
2022-10-06T06:27:10.453Z,11.80
2022-10-06T06:29:40.061Z,13.18
2022-10-06T06:32:08.267Z,10.80
2022-10-06T06:34:35.957Z,11.90
2022-10-06T06:37:06.914Z,15.52
2022-10-06T06:39:38.573Z,14.15
2022-10-06T06:42:08.561Z,11.52
2022-10-06T06:44:36.245Z,8.75
2022-10-06T06:47:03.970Z,10.55
2022-10-06T06:49:31.635Z,9.65
2022-10-06T06:51:59.340Z,9.30
2022-10-06T06:54:27.645Z,8.48
2022-10-06T06:56:56.750Z,6.70
2022-10-06T06:59:25.208Z,11.65
2022-10-06T07:01:53.097Z,11.40
2022-10-06T07:04:21.027Z,10.07
2022-10-06T07:06:53.198Z,9.18
2022-10-06T07:11:50.137Z,8.52
2022-10-06T07:14:22.454Z,8.65
2022-10-06T07:17:07.498Z,8.45
2022-10-06T07:19:52.718Z,6.13
2022-10-06T07:22:41.083Z,8.38
2022-10-06T07:25:15.007Z,8.90
2022-10-06T07:27:44.335Z,9.15
2022-10-06T07:30:17.925Z,12.05
2022-10-06T07:32:46.099Z,8.45
2022-10-06T07:35:16.566Z,9.93
2022-10-06T07:37:44.300Z,6.10
2022-10-06T07:40:13.088Z,13.32
2022-10-06T07:42:52.308Z,6.68
2022-10-06T07:45:41.021Z,10.80
2022-10-06T07:48:11.821Z,8.70
2022-10-06T07:50:40.346Z,11.82
2022-10-06T07:53:08.847Z,8.93
2022-10-06T07:55:39.915Z,9.73
2022-10-06T07:58:11.582Z,7.67
2022-10-06T08:00:40.679Z,13.98
2022-10-06T08:03:09.382Z,6.30
2022-10-06T08:05:39.092Z,12.90
2022-10-06T08:08:07.012Z,8.57
2022-10-06T08:10:34.718Z,18.50
2022-10-06T08:13:06.244Z,11.07
2022-10-06T08:15:33.930Z,7.93
2022-10-06T08:18:12.169Z,11.48
2022-10-06T08:20:49.415Z,11.00
2022-10-06T08:23:17.152Z,6.40
2022-10-06T08:25:51.043Z,12.50
2022-10-06T08:28:19.075Z,6.60
2022-10-06T08:30:47.299Z,13.48
2022-10-06T08:33:18.183Z,17.50
2022-10-06T08:35:48.859Z,19.15
2022-10-06T08:38:16.526Z,15.52
2022-10-06T08:40:45.806Z,10.85
2022-10-06T08:43:18.706Z,9.02
2022-10-06T08:45:48.629Z,18.17
2022-10-06T08:48:19.805Z,11.82
2022-10-06T08:50:59.648Z,12.55
2022-10-06T08:53:35.600Z,12.68
2022-10-06T08:56:12.552Z,15.82
2022-10-06T08:58:52.831Z,12.65
2022-10-06T09:01:23.459Z,15.05
2022-10-06T09:03:54.882Z,19.38
2022-10-06T09:06:51.229Z,14.23
2022-10-06T09:09:28.463Z,10.18
2022-10-06T09:12:06.844Z,16.65
2022-10-06T09:14:41.129Z,13.75
2022-10-06T09:17:14.162Z,16.63
2022-10-06T09:19:47.434Z,13.38
2022-10-06T09:22:20.428Z,11.82
2022-10-06T09:24:50.899Z,7.40
2022-10-06T09:27:21.998Z,12.70
2022-10-06T09:29:50.636Z,15.25
2022-10-06T09:32:19.697Z,9.43
2022-10-06T09:34:51.841Z,13.05
2022-10-06T09:37:20.121Z,12.55
2022-10-06T09:39:50.833Z,11.13
2022-10-06T09:42:22.718Z,12.88
2022-10-06T09:44:58.149Z,7.15
2022-10-06T09:47:36.454Z,14.10
2022-10-06T09:50:23.457Z,10.05
2022-10-06T09:53:12.038Z,9.38
2022-10-06T09:55:46.524Z,11.18
2022-10-06T09:58:21.438Z,13.05
2022-10-06T10:00:53.897Z,8.88
2022-10-06T10:03:22.614Z,9.40
2022-10-06T10:05:54.802Z,6.70
2022-10-06T10:08:25.083Z,8.77
2022-10-06T10:11:33.166Z,8.32
2022-10-06T10:14:01.277Z,7.88
2022-10-06T10:16:34.638Z,6.82
2022-10-06T10:19:05.628Z,7.53
2022-10-06T10:21:37.085Z,10.77
2022-10-06T10:24:15.807Z,9.93
2022-10-06T10:26:53.713Z,9.82
2022-10-06T10:29:41.850Z,14.90
2022-10-06T10:32:15.485Z,13.27
2022-10-06T10:35:00.167Z,10.27
2022-10-06T10:37:36.108Z,10.23
2022-10-06T10:40:13.013Z,11.55
2022-10-06T10:42:47.147Z,7.82
2022-10-06T10:45:20.277Z,6.97
2022-10-06T10:47:50.219Z,7.90
2022-10-06T10:50:25.618Z,6.22
2022-10-06T10:52:58.939Z,8.15
2022-10-06T10:55:30.818Z,11.27
2022-10-06T10:58:05.438Z,15.52
2022-10-06T11:00:39.526Z,6.50
2022-10-06T11:03:10.020Z,8.70
2022-10-06T11:05:53.642Z,6.07
2022-10-06T11:08:29.563Z,7.63
2022-10-06T11:10:59.761Z,10.18
2022-10-06T11:13:33.803Z,4.85
2022-10-06T11:16:19.992Z,10.07
2022-10-06T11:19:09.364Z,9.10
2022-10-06T11:21:42.884Z,10.18
2022-10-06T11:24:18.315Z,5.50
2022-10-06T11:27:10.588Z,6.00
2022-10-06T11:29:48.851Z,8.82
2022-10-06T11:32:26.680Z,7.05
2022-10-06T11:34:54.838Z,11.70
2022-10-06T11:37:34.889Z,6.90
2022-10-06T11:40:24.765Z,5.85
2022-10-06T11:42:59.880Z,9.85
2022-10-06T11:45:35.552Z,5.55
2022-10-06T11:48:22.140Z,5.72
2022-10-06T11:50:53.069Z,8.55
2022-10-06T11:53:38.270Z,10.40
2022-10-06T11:56:36.719Z,7.95
2022-10-06T11:59:31.301Z,7.25
2022-10-06T12:02:00.746Z,8.32
2022-10-06T12:04:28.983Z,5.43
2022-10-06T12:07:01.493Z,10.88
2022-10-06T12:09:46.085Z,9.00
2022-10-06T12:13:05.795Z,7.05
2022-10-06T12:19:23.202Z,8.10
2022-10-06T12:21:59.164Z,6.25
2022-10-06T12:24:33.778Z,13.38
2022-10-06T12:27:26.236Z,5.65
2022-10-06T12:30:02.948Z,6.57
2022-10-06T12:32:50.129Z,9.05
2022-10-06T12:35:24.859Z,4.43
2022-10-06T12:37:54.699Z,5.72
2022-10-06T12:40:49.189Z,12.82
2022-10-06T12:43:57.412Z,5.47
2022-10-06T12:46:46.112Z,17.98
2022-10-06T12:49:37.064Z,9.40
2022-10-06T12:52:27.811Z,7.53
2022-10-06T12:55:08.433Z,6.78
2022-10-06T12:57:47.111Z,7.80
2022-10-06T13:03:01.399Z,7.43
2022-10-06T13:05:29.965Z,16.50
2022-10-06T13:07:59.453Z,7.68
2022-10-06T13:10:29.283Z,8.68
2022-10-06T13:12:58.885Z,11.57
2022-10-06T13:15:33.362Z,9.15
2022-10-06T13:18:11.408Z,11.63
2022-10-06T13:20:42.726Z,8.85
2022-10-06T13:23:23.936Z,10.20
2022-10-06T13:25:57.617Z,7.43
2022-10-06T13:28:31.934Z,9.77
2022-10-06T13:33:37.084Z,7.20
2022-10-06T13:36:05.363Z,12.77
2022-10-06T13:38:35.127Z,11.23
2022-10-06T13:41:22.659Z,7.30
2022-10-06T13:43:53.798Z,9.43
2022-10-06T13:46:24.657Z,6.67
2022-10-06T13:48:56.605Z,9.38
2022-10-06T13:51:29.755Z,5.97
2022-10-06T13:53:58.888Z,6.95
2022-10-06T13:59:16.843Z,11.35
2022-10-06T14:01:44.706Z,10.00
2022-10-06T14:04:14.865Z,9.77
2022-10-06T14:06:49.878Z,12.85
2022-10-06T14:09:23.568Z,11.10
2022-10-06T14:11:52.030Z,11.60
2022-10-06T14:14:19.822Z,10.88
2022-10-06T14:16:49.448Z,9.13
2022-10-06T14:19:36.618Z,5.93
2022-10-06T14:22:06.122Z,7.90
2022-10-06T14:24:37.255Z,8.95
2022-10-06T14:27:06.909Z,10.52
2022-10-06T14:29:37.787Z,9.55
2022-10-06T14:32:11.395Z,10.73
2022-10-06T14:34:47.718Z,9.93
2022-10-06T14:37:16.213Z,12.82
2022-10-06T14:39:44.929Z,13.57
2022-10-06T14:42:14.396Z,13.15
2022-10-06T14:44:43.157Z,5.20
2022-10-06T14:47:11.104Z,7.63
2022-10-06T14:49:40.683Z,10.27
2022-10-06T14:52:10.499Z,9.50
2022-10-06T14:54:38.303Z,8.73
2022-10-06T14:57:05.974Z,7.88
2022-10-06T14:59:33.683Z,9.40
2022-10-06T15:02:01.387Z,7.00
2022-10-06T15:04:29.264Z,8.50
2022-10-06T15:07:15.555Z,12.63
2022-10-06T15:09:43.681Z,10.43
2022-10-06T15:12:11.479Z,8.52
2022-10-06T15:14:39.837Z,19.70
2022-10-06T15:17:07.852Z,7.70
2022-10-06T15:19:35.516Z,7.10
2022-10-06T15:22:06.255Z,7.95
2022-10-06T15:24:33.950Z,9.05
2022-10-06T15:27:23.909Z,8.40
2022-10-06T15:29:52.568Z,4.25
2022-10-06T15:32:20.398Z,9.15
2022-10-06T15:34:48.110Z,6.18
2022-10-06T15:37:19.901Z,9.13
2022-10-06T15:39:47.887Z,5.10
2022-10-06T15:42:18.652Z,4.40
2022-10-06T15:44:46.326Z,8.40
2022-10-06T15:47:14.209Z,10.15
2022-10-06T15:49:41.928Z,6.13
2022-10-06T15:52:12.869Z,6.50
2022-10-06T15:54:42.360Z,7.20
2022-10-06T15:57:17.900Z,11.07
2022-10-06T15:59:48.253Z,10.75
2022-10-06T16:02:17.978Z,9.70
2022-10-06T16:04:57.547Z,7.72
2022-10-06T16:07:25.360Z,10.15
2022-10-06T16:09:54.434Z,8.45
2022-10-06T16:12:25.151Z,7.93
2022-10-06T16:14:53.218Z,11.18
2022-10-06T16:17:21.060Z,6.13
2022-10-06T16:19:48.864Z,6.95
2022-10-06T16:22:19.411Z,6.32
2022-10-06T16:24:47.163Z,6.72
2022-10-06T16:27:17.168Z,7.72
2022-10-06T16:29:44.817Z,8.90
2022-10-06T16:32:12.652Z,8.90
2022-10-06T16:34:40.363Z,9.65
2022-10-06T16:37:08.071Z,8.80
2022-10-06T16:39:35.729Z,12.20
2022-10-06T16:42:03.785Z,48.28
2022-10-06T16:44:32.886Z,13.00
2022-10-06T16:47:00.621Z,10.23
2022-10-06T16:49:28.368Z,9.45
2022-10-06T16:51:56.122Z,12.50
2022-10-06T16:54:23.886Z,15.50
2022-10-06T16:56:54.152Z,5.68
2022-10-06T16:59:23.491Z,9.55
2022-10-06T17:01:52.884Z,14.02
2022-10-06T17:04:22.268Z,9.70
2022-10-06T17:06:52.111Z,6.82
2022-10-06T17:09:21.164Z,14.88
2022-10-06T17:11:50.993Z,9.43
2022-10-06T17:14:19.668Z,12.68
2022-10-06T17:16:49.139Z,12.15
2022-10-06T17:19:20.249Z,7.53
2022-10-06T17:21:51.533Z,11.18
2022-10-06T17:24:22.568Z,13.43
2022-10-06T17:26:51.109Z,11.32
2022-10-06T17:29:21.464Z,13.77
2022-10-06T17:31:50.843Z,13.20
2022-10-06T17:34:22.484Z,13.95
2022-10-06T17:36:53.047Z,15.63
2022-10-06T17:39:22.880Z,16.02
2022-10-06T17:41:52.481Z,18.35
2022-10-06T17:44:22.518Z,24.58
2022-10-06T17:46:52.458Z,18.25
2022-10-06T17:49:22.572Z,12.13
2022-10-06T17:51:51.386Z,14.90
2022-10-06T17:54:21.090Z,12.13
2022-10-06T17:56:50.383Z,10.77
2022-10-06T17:59:21.068Z,18.60
2022-10-06T18:01:49.018Z,13.02
2022-10-06T18:04:16.808Z,17.77
2022-10-06T18:06:47.130Z,16.75
2022-10-06T18:09:15.620Z,17.95
2022-10-06T18:11:44.049Z,18.65
2022-10-06T18:14:13.667Z,19.48
2022-10-06T18:16:43.068Z,13.90
2022-10-06T18:19:13.183Z,16.00
2022-10-06T18:21:42.846Z,14.93
2022-10-06T18:24:15.211Z,13.15
2022-10-06T18:26:43.475Z,21.15
2022-10-06T18:29:12.423Z,20.10
2022-10-06T18:31:40.191Z,20.77
2022-10-06T18:36:56.541Z,15.13
2022-10-06T18:39:25.611Z,14.40
2022-10-06T18:41:53.637Z,18.63
2022-10-06T18:44:35.293Z,14.25
2022-10-06T18:47:20.264Z,17.42
2022-10-06T18:49:48.016Z,12.93
2022-10-06T18:52:16.062Z,15.93
2022-10-06T18:54:45.604Z,17.30
2022-10-06T18:57:13.304Z,15.60
2022-10-06T18:59:40.981Z,17.92
2022-10-06T19:02:08.838Z,17.77
2022-10-06T19:04:36.712Z,34.80
2022-10-06T19:07:04.444Z,18.92
2022-10-06T19:09:32.166Z,19.30
2022-10-06T19:12:01.852Z,21.30
2022-10-06T19:14:31.747Z,19.15
2022-10-06T19:17:02.141Z,16.40
2022-10-06T19:19:31.196Z,16.25
2022-10-06T19:22:00.619Z,27.58
2022-10-06T19:24:31.227Z,27.05
2022-10-06T19:26:59.486Z,17.90
2022-10-06T19:29:30.070Z,17.58
2022-10-06T19:31:59.637Z,12.88
2022-10-06T19:34:28.649Z,14.73
2022-10-06T19:36:58.193Z,17.60
2022-10-06T19:39:27.135Z,20.05
2022-10-06T19:42:12.589Z,19.92
2022-10-06T19:44:43.267Z,22.55
2022-10-06T19:47:14.647Z,15.00
2022-10-06T19:49:42.803Z,20.30
2022-10-06T19:52:12.434Z,17.15
2022-10-06T19:54:41.941Z,16.90
2022-10-06T19:57:11.483Z,18.85
2022-10-06T19:59:39.318Z,24.02
2022-10-06T20:02:10.126Z,15.52
2022-10-06T20:04:38.109Z,19.85
2022-10-06T20:07:06.042Z,15.23
2022-10-06T20:09:33.863Z,18.73
2022-10-06T20:12:02.305Z,17.40
2022-10-06T20:14:30.323Z,21.38
2022-10-06T20:16:58.503Z,24.38
2022-10-06T20:19:27.704Z,18.77
2022-10-06T20:21:55.520Z,14.02
2022-10-06T20:24:25.690Z,13.35
2022-10-06T20:26:54.646Z,14.45
2022-10-06T20:29:24.101Z,20.92
2022-10-06T20:31:53.826Z,15.32
2022-10-06T20:34:24.604Z,13.45
2022-10-06T20:36:56.155Z,11.68
2022-10-06T20:39:41.954Z,17.02
2022-10-06T20:42:15.014Z,17.55
2022-10-06T20:44:43.239Z,18.42
2022-10-06T20:47:11.163Z,13.52
2022-10-06T20:49:38.930Z,20.83
2022-10-06T20:52:09.831Z,14.10
2022-10-06T20:54:37.684Z,20.90
2022-10-06T20:57:09.663Z,24.95
2022-10-06T21:02:06.875Z,13.30
2022-10-06T21:04:34.945Z,17.00
2022-10-06T21:07:05.672Z,24.55
2022-10-06T21:09:34.730Z,25.75
2022-10-06T21:12:04.444Z,18.48
2022-10-06T21:14:33.962Z,20.63
2022-10-06T21:17:01.804Z,16.92
2022-10-06T21:19:29.932Z,21.23
2022-10-06T21:21:57.693Z,26.77
2022-10-06T21:24:25.408Z,21.17
2022-10-06T21:26:54.468Z,15.13
2022-10-06T21:29:22.577Z,18.10
2022-10-06T21:31:50.244Z,20.95
2022-10-06T21:34:17.918Z,23.33
2022-10-06T21:36:45.616Z,20.80
2022-10-06T21:39:14.250Z,18.55
2022-10-06T21:41:42.567Z,23.92
2022-10-06T21:44:13.156Z,18.48
2022-10-06T21:46:42.914Z,21.23
2022-10-06T21:49:12.514Z,29.48
2022-10-06T21:51:42.278Z,23.15
2022-10-06T21:54:11.037Z,25.40
2022-10-06T21:56:40.116Z,23.83
2022-10-06T21:59:08.425Z,25.05
2022-10-06T22:01:39.157Z,22.80
2022-10-06T22:04:07.373Z,30.58
2022-10-06T22:06:37.263Z,25.88
2022-10-06T22:09:06.538Z,21.60
2022-10-06T22:11:37.595Z,31.73
2022-10-06T22:14:07.224Z,26.45
2022-10-06T22:16:37.710Z,24.38
2022-10-06T22:19:07.451Z,16.58
2022-10-06T22:21:36.698Z,21.60
2022-10-06T22:24:06.376Z,26.17
2022-10-06T22:26:37.329Z,24.15
2022-10-06T22:29:06.295Z,23.10
2022-10-06T22:31:34.443Z,22.70
2022-10-06T22:34:05.289Z,27.88
2022-10-06T22:36:33.319Z,21.77
2022-10-06T22:39:01.561Z,23.67
2022-10-06T22:41:29.874Z,30.02
2022-10-06T22:43:59.272Z,28.88
2022-10-06T22:46:28.134Z,19.70
2022-10-06T22:48:56.221Z,23.65
2022-10-06T22:51:25.782Z,26.20
2022-10-06T22:53:57.652Z,24.75
2022-10-06T22:56:26.509Z,23.75
2022-10-06T22:58:54.223Z,21.98
2022-10-06T23:01:22.226Z,26.48
2022-10-06T23:03:50.971Z,38.05
2022-10-06T23:06:19.189Z,23.05
2022-10-06T23:08:48.286Z,22.88
2022-10-06T23:11:19.139Z,25.50
2022-10-06T23:13:48.385Z,22.60
2022-10-06T23:16:17.740Z,26.02
2022-10-06T23:18:46.207Z,21.75
2022-10-06T23:21:19.206Z,26.35
2022-10-06T23:23:49.215Z,24.55
2022-10-06T23:26:18.833Z,21.67
2022-10-06T23:28:47.712Z,25.40
2022-10-06T23:31:15.420Z,26.23
2022-10-06T23:33:43.116Z,22.65
2022-10-06T23:36:12.739Z,20.15
2022-10-06T23:38:42.116Z,23.17
2022-10-06T23:41:11.308Z,19.83
2022-10-06T23:43:39.036Z,31.75
2022-10-06T23:46:07.061Z,22.73
2022-10-06T23:48:35.051Z,19.02
2022-10-06T23:51:05.579Z,22.48
2022-10-06T23:53:33.375Z,25.33
2022-10-06T23:56:01.126Z,31.08
2022-10-06T23:58:30.299Z,31.15
